If you wish to contribute or participate in the discussions about articles you are invited to join SKYbrary as a registered user

 Actions

Antananarivo/Ivato International Airport

From SKYbrary Wiki

FMMI /
Revision as of 21:56, 20 October 2014 by Timo.Kouwenhoven (talk | contribs) (Created page with "{{Airport |Airport_Name=Antananarivo/Ivato International Airport |ICAO_Region=AFI |ICAO_Territory=FM |IATA Code=TNR |Elevation=1279.550415 |Location=Antananarivo |Main city serv...")
(diff) ← Older revision | Latest revision (diff) | Newer revision → (diff)
Airport
ICAO: FMMI – IATA: TNR
Summary
Name Antananarivo/Ivato International Airport
Region Africa
Territory Madagascar MG.gif
Location Antananarivo
Serving Antananarivo
Elevation 1,279.55 m
4,198 ft
4,198 ft1,279.55 m
Coordinates 18° 47' 47.00" S, 47° 28' 34.00" E
Runways
Designator Length Width Surface ROPS
11/29 3100 m10,170.604 ft
45 m147.638 ft
ASP yes/yes


METAR
Observation FMMI 230830Z 13012KT 100V180 9999 BKN023 23/10 Q1025 NOSIG
Station Antananarivo / Ivato
Date/Time 23 September 2019 08:30:00
Wind direction 130°
Wind speed 12 kts
Lowest cloud amount broken clouds
Temperature 23°C
Dew point 10°C
Humidity 43%
QNH 1025 hPa
Weather condition n/a